Time;durP1;ratioP1;P1;durP2;ratioP2;P2;SDS_P1;SDS_P2;PMS_P1;PMS_P2;Temp;Humidity;BMP_temperature;BMP_pressure;BME280_temperature;BME280_humidity;BME280_pressure;Samples;Min_cycle;Max_cycle;Signal;HPM_P1;HPM_P2
2023/07/21 00:00:14;;;;;;;2.90;1.48;;;;;;;14.05;80.59;101186.38;4962179;28;20043;-76
2023/07/21 00:02:43;;;;;;;3.30;1.90;;;;;;;14.05;80.64;101192.56;4945759;28;20119;-77
2023/07/21 00:05:38;;;;;;;3.15;1.95;;;;;;;14.06;80.57;101179.88;4960185;28;20031;-77
2023/07/21 00:08:03;;;;;;;3.42;2.10;;;;;;;14.01;80.80;101175.34;4944144;28;20041;-77
2023/07/21 00:10:55;;;;;;;;;;;;;;;14.05;80.29;101180.97;4929771;28;20031;-77
2023/07/21 00:13:20;;;;;;;3.90;2.30;;;;;;;14.03;80.10;101185.84;4937975;28;19925;-78
2023/07/21 00:15:48;;;;;;;3.70;1.73;;;;;;;14.03;80.18;101185.84;4968354;23;20046;-77
2023/07/21 00:18:19;;;;;;;2.63;1.60;;;;;;;14.03;80.18;101185.84;4932035;28;20606;-76
2023/07/21 00:20:55;;;;;;;2.47;1.60;;;;;;;14.04;80.79;101187.47;4945745;28;20554;-76
2023/07/21 00:23:24;;;;;;;5.28;1.77;;;;;;;14.03;81.01;101185.84;4928651;28;20117;-77
2023/07/21 00:25:51;;;;;;;3.83;1.77;;;;;;;14.01;81.14;101179.91;4953584;28;20035;-78
2023/07/21 00:28:17;;;;;;;3.05;1.95;;;;;;;14.00;81.68;101172.94;4932888;28;20791;-77
2023/07/21 00:30:49;;;;;;;4.18;1.60;;;;;;;13.98;81.05;101186.69;4918916;28;20035;-76
2023/07/21 00:33:25;;;;;;;2.95;1.83;;;;;;;13.97;80.72;101178.91;4933762;28;20027;-78
2023/07/21 00:35:52;;;;;;;7.10;2.00;;;;;;;13.94;81.13;101170.28;4928239;28;20043;-79
2023/07/21 00:38:22;;;;;;;3.97;2.30;;;;;;;13.88;80.72;101171.41;4945697;28;20125;-78
2023/07/21 00:40:47;;;;;;;2.70;1.80;;;;;;;13.87;81.25;101169.78;4944115;28;20038;-75
2023/07/21 00:43:15;;;;;;;5.57;1.95;;;;;;;13.83;80.85;101171.44;4950225;28;20035;-76
2023/07/21 00:45:40;;;;;;;2.75;1.55;;;;;;;13.78;80.80;101174.19;4950453;28;20042;-79
2023/07/21 00:48:32;;;;;;;4.60;2.30;;;;;;;13.76;81.98;101179.03;4933570;28;20034;-75
2023/07/21 00:51:23;;;;;;;5.70;1.70;;;;;;;13.70;81.69;101173.97;4945443;28;20031;-76
2023/07/21 00:53:50;;;;;;;5.45;1.73;;;;;;;13.65;81.31;101169.41;4931632;28;20042;-76
2023/07/21 00:56:19;;;;;;;3.92;2.08;;;;;;;13.62;81.42;101167.31;4931643;28;20432;-77
2023/07/21 00:58:45;;;;;;;3.03;1.70;;;;;;;13.56;81.58;101160.34;4933144;28;20043;-76
2023/07/21 01:01:11;;;;;;;5.90;2.20;;;;;;;13.52;81.64;101164.66;4930470;28;20467;-76
2023/07/21 01:03:39;;;;;;;2.85;2.10;;;;;;;13.47;82.21;101159.31;4929397;28;20038;-77
2023/07/21 01:06:07;;;;;;;4.70;2.00;;;;;;;13.44;81.98;101166.06;4927032;28;20262;-78
2023/07/21 01:08:34;;;;;;;4.43;2.40;;;;;;;13.38;81.92;101157.22;4940908;28;20489;-79
2023/07/21 01:11:01;;;;;;;2.80;1.73;;;;;;;13.36;81.98;101159.38;4931926;28;20085;-78
2023/07/21 01:13:27;;;;;;;2.67;1.80;;;;;;;13.33;82.36;101159.91;4951330;28;20445;-77
2023/07/21 01:16:14;;;;;;;2.58;1.58;;;;;;;13.32;82.74;101158.31;4940480;28;20142;-76
2023/07/21 01:18:44;;;;;;;2.22;1.55;;;;;;;13.25;82.69;101152.44;4948279;28;20700;-79
2023/07/21 01:21:41;;;;;;;3.33;1.73;;;;;;;13.19;83.21;101150.81;4944857;28;20042;-77
2023/07/21 01:24:16;;;;;;;4.95;2.10;;;;;;;13.14;82.74;101142.81;4933762;28;20034;-77
2023/07/21 01:26:53;;;;;;;4.07;2.00;;;;;;;13.09;83.81;101149.00;4948504;28;20133;-77
2023/07/21 01:29:32;;;;;;;4.68;1.70;;;;;;;13.03;83.31;101149.28;4917731;28;20070;-76
2023/07/21 01:31:59;;;;;;;3.13;1.70;;;;;;;12.99;83.78;101151.72;4948919;28;20031;-78
2023/07/21 01:34:25;;;;;;;3.40;1.85;;;;;;;12.93;83.53;101141.25;4943584;28;20045;-78
2023/07/21 01:36:52;;;;;;;4.18;1.80;;;;;;;12.89;83.72;101143.72;4932496;28;20046;-78
2023/07/21 01:39:21;;;;;;;4.90;1.88;;;;;;;12.87;83.75;101142.34;4932590;28;20101;-79
2023/07/21 01:41:47;;;;;;;5.10;1.80;;;;;;;12.81;83.99;101137.03;4917976;28;20035;-76
2023/07/21 01:44:21;;;;;;;6.57;2.13;;;;;;;12.79;83.95;101144.53;4932131;28;20073;-76
2023/07/21 01:46:58;;;;;;;6.40;1.92;;;;;;;12.74;84.28;101136.50;4916827;28;20043;-76
2023/07/21 01:49:28;;;;;;;3.35;1.60;;;;;;;12.74;84.20;101141.09;4916000;28;20042;-76
2023/07/21 01:51:58;;;;;;;5.22;1.92;;;;;;;12.69;84.49;101133.03;4931477;28;20026;-78
2023/07/21 01:54:44;;;;;;;;;;;;;;;;;;;;;
2023/07/21 01:57:17;;;;;;;3.72;2.03;;;;;;;12.69;84.72;101131.16;4925913;28;20031;-79
2023/07/21 01:59:45;;;;;;;5.15;1.70;;;;;;;12.68;84.61;101128.75;4913230;28;20804;-79
2023/07/21 02:02:14;;;;;;;3.60;2.00;;;;;;;12.69;83.96;101125.78;4929661;28;20128;-77
2023/07/21 02:04:49;;;;;;;3.40;2.03;;;;;;;12.71;84.38;101126.28;4949543;28;20500;-76
2023/07/21 02:07:20;;;;;;;3.20;2.15;;;;;;;12.68;84.73;101126.06;4904938;28;20047;-79
2023/07/21 02:09:52;;;;;;;3.58;1.98;;;;;;;12.65;84.88;101122.00;4927241;28;20038;-75
2023/07/21 02:12:45;;;;;;;4.78;1.95;;;;;;;12.60;84.97;101118.53;4949260;28;20090;-79
2023/07/21 02:15:19;;;;;;;4.25;2.42;;;;;;;12.58;85.22;101116.13;4949150;28;20983;-74
2023/07/21 02:17:45;;;;;;;4.75;2.10;;;;;;;12.57;85.65;101126.06;4929601;28;20034;-77
2023/07/21 02:20:11;;;;;;;4.70;2.40;;;;;;;12.56;86.10;101123.66;4947335;28;20038;-79
2023/07/21 02:22:43;;;;;;;4.32;2.65;;;;;;;12.53;86.33;101108.06;4931923;28;20039;-80
2023/07/21 02:25:15;;;;;;;2.97;1.85;;;;;;;12.55;85.70;101111.31;4924982;28;20038;-77
2023/07/21 02:27:42;;;;;;;4.50;2.72;;;;;;;12.54;85.60;101107.81;4946722;28;20056;-78
2023/07/21 02:30:09;;;;;;;3.00;2.15;;;;;;;12.54;86.69;101105.13;4931321;28;20030;-78
2023/07/21 02:32:36;;;;;;;3.92;2.65;;;;;;;12.56;86.68;101112.91;4942993;28;20041;-76
2023/07/21 02:35:01;;;;;;;5.63;2.45;;;;;;;12.57;86.97;101111.84;4946699;28;20043;-75
2023/07/21 02:37:30;;;;;;;4.80;2.67;;;;;;;12.57;87.02;101114.53;4941979;28;20042;-78
2023/07/21 02:39:58;;;;;;;3.25;2.30;;;;;;;12.61;87.46;101115.59;4915259;28;20237;-78
2023/07/21 02:42:24;;;;;;;4.32;2.75;;;;;;;12.63;87.38;101112.63;4933735;28;20039;-78
2023/07/21 02:44:51;;;;;;;4.07;2.90;;;;;;;12.65;87.66;101111.25;4920402;28;20177;-76
2023/07/21 02:47:17;;;;;;;;;;;;;;;12.64;87.37;101104.28;4929705;28;20050;-76
2023/07/21 02:49:44;;;;;;;4.30;2.97;;;;;;;12.61;86.51;101104.84;4929574;28;19921;-79
2023/07/21 02:52:11;;;;;;;3.88;2.53;;;;;;;12.58;86.80;101095.44;4917349;28;20030;-76
2023/07/21 02:54:37;;;;;;;3.92;2.90;;;;;;;12.55;86.55;101092.50;4931665;28;20026;-79
2023/07/21 02:57:06;;;;;;;3.90;2.50;;;;;;;12.58;86.05;101100.81;4929706;28;20062;-78
2023/07/21 02:59:34;;;;;;;5.85;2.60;;;;;;;12.58;85.39;101089.25;4945873;28;20054;-82
2023/07/21 03:02:00;;;;;;;2.42;1.80;;;;;;;12.57;85.54;101093.03;4911479;28;20165;-77
2023/07/21 03:04:46;;;;;;;;;;;;;;;;;;;;;
2023/07/21 03:07:17;;;;;;;3.40;2.10;;;;;;;12.55;86.31;101095.19;4945150;28;20150;-77
2023/07/21 03:09:57;;;;;;;2.85;1.80;;;;;;;12.53;86.55;101081.22;4916102;28;20676;-78
2023/07/21 03:12:38;;;;;;;4.43;1.88;;;;;;;12.53;86.56;101079.34;4918570;28;20050;-76
2023/07/21 03:16:16;;;;;;;4.28;2.33;;;;;;;12.57;87.13;101082.28;4929575;28;20034;-78
2023/07/21 03:20:04;;;;;;;;;;;;;;;;;;;;;
2023/07/21 03:23:31;;;;;;;3.20;1.88;;;;;;;12.52;86.86;101074.22;4941508;28;20038;-80
2023/07/21 03:26:04;;;;;;;2.85;1.67;;;;;;;12.54;86.76;101072.09;4942261;28;20038;-77
2023/07/21 03:28:38;;;;;;;;;;;;;;;12.58;87.25;101073.94;4917801;28;20042;-79
2023/07/21 03:31:11;;;;;;;4.65;2.55;;;;;;;12.53;87.00;101073.97;4916652;28;19929;-79
2023/07/21 03:33:48;;;;;;;3.28;2.35;;;;;;;12.55;86.49;101079.06;4931482;28;20046;-77
2023/07/21 03:36:27;;;;;;;4.07;2.03;;;;;;;12.53;86.94;101071.28;4934543;28;20034;-78
2023/07/21 03:39:02;;;;;;;3.30;2.08;;;;;;;12.56;87.77;101070.72;4930466;28;20035;-76
2023/07/21 03:41:37;;;;;;;;;;;;;;;12.62;88.57;101074.22;4945489;28;20573;-76
2023/07/21 03:44:15;;;;;;;4.03;2.30;;;;;;;12.62;87.77;101073.41;4934103;28;19917;-79
2023/07/21 03:46:49;;;;;;;3.75;2.55;;;;;;;12.60;88.11;101072.84;4943261;28;20042;-79
2023/07/21 03:49:29;;;;;;;6.28;2.22;;;;;;;12.63;88.13;101075.81;4949222;28;20078;-77
2023/07/21 03:52:23;;;;;;;3.55;2.08;;;;;;;12.66;88.61;101086.00;4936652;28;20036;-79
2023/07/21 03:54:51;;;;;;;6.47;3.00;;;;;;;12.72;88.60;101086.78;4932287;28;20109;-77
2023/07/21 03:57:28;;;;;;;3.55;2.33;;;;;;;12.75;88.34;101079.00;4933072;28;20099;-76
2023/07/21 04:00:22;;;;;;;3.33;1.85;;;;;;;12.75;88.44;101073.63;4947038;28;20050;-78
2023/07/21 04:02:55;;;;;;;3.08;2.13;;;;;;;12.78;88.40;101067.69;4951149;28;20035;-78
2023/07/21 04:05:21;;;;;;;5.43;2.60;;;;;;;12.84;87.94;101069.25;4931447;28;20127;-78
2023/07/21 04:08:26;;;;;;;3.90;2.22;;;;;;;12.89;87.94;101075.72;4952348;28;20116;-76
2023/07/21 04:11:25;;;;;;;4.35;2.50;;;;;;;12.87;88.17;101064.41;4928572;28;20047;-77
2023/07/21 04:14:28;;;;;;;3.22;2.13;;;;;;;12.89;88.21;101063.06;4931520;28;20061;-77
2023/07/21 04:17:01;;;;;;;4.72;2.45;;;;;;;12.93;88.16;101060.63;4936645;28;20046;-76
2023/07/21 04:23:47;;;;;;;5.13;2.58;;;;;;;12.95;87.76;101059.28;4917060;28;20051;-77
2023/07/21 04:27:12;;;;;;;5.28;2.53;;;;;;;13.01;87.48;101070.81;4965937;28;20046;-76
2023/07/21 04:29:44;;;;;;;7.32;3.10;;;;;;;13.01;87.50;101060.84;4893231;28;20112;-76
2023/07/21 04:32:38;;;;;;;4.20;2.30;;;;;;;13.03;87.61;101057.88;4934804;28;20050;-77
2023/07/21 04:35:57;;;;;;;4.40;2.70;;;;;;;13.09;87.09;101072.91;4952234;28;20038;-75
2023/07/21 04:38:56;;;;;;;5.55;3.10;;;;;;;13.04;87.43;101064.88;4924219;28;20118;-77
2023/07/21 04:41:34;;;;;;;6.47;2.88;;;;;;;13.07;87.16;101067.81;4951057;28;20034;-78
2023/07/21 04:44:22;;;;;;;4.13;2.47;;;;;;;13.05;87.12;101055.72;4946798;28;20055;-80
2023/07/21 04:47:00;;;;;;;5.55;2.38;;;;;;;13.12;87.49;101065.06;4934497;28;20117;-78
2023/07/21 04:49:44;;;;;;;5.90;2.72;;;;;;;13.15;87.16;101063.72;4935349;28;20026;-78
2023/07/21 04:52:11;;;;;;;5.55;3.08;;;;;;;13.19;87.18;101062.06;4935630;28;20042;-77
2023/07/21 04:58:31;;;;;;;4.55;2.58;;;;;;;13.25;87.10;101071.75;4980188;23;20058;-76
2023/07/21 05:07:26;;;;;;;5.20;2.50;;;;;;;13.41;86.63;101068.94;4964259;28;20070;-76
2023/07/21 05:13:58;;;;;;;5.00;3.50;;;;;;;13.49;86.96;101063.78;4944607;28;20174;-76
2023/07/21 05:17:16;;;;;;;6.50;2.55;;;;;;;13.53;86.52;101061.31;4966824;28;20042;-76
2023/07/21 05:21:48;;;;;;;5.35;2.80;;;;;;;13.60;86.67;101051.03;4916573;28;20043;-77
2023/07/21 05:24:56;;;;;;;3.38;2.45;;;;;;;13.74;86.52;101060.06;4868310;29;20052;-77
2023/07/21 05:27:23;;;;;;;4.18;2.60;;;;;;;13.85;86.03;101058.91;4905655;28;20061;-78
2023/07/21 05:29:53;;;;;;;5.30;2.95;;;;;;;13.90;85.04;101063.44;4948220;28;21620;-77
2023/07/21 05:32:18;;;;;;;4.15;2.60;;;;;;;13.97;84.88;101065.81;4932535;28;20480;-78
2023/07/21 05:34:52;;;;;;;5.68;2.95;;;;;;;14.03;84.81;101060.09;4916201;28;20121;-77
2023/07/21 05:37:18;;;;;;;6.25;2.10;;;;;;;14.12;85.07;101054.88;4914382;28;20453;-77
2023/07/21 05:39:46;;;;;;;5.97;2.72;;;;;;;14.17;85.02;101055.63;4930794;28;20515;-79
2023/07/21 05:42:11;;;;;;;5.85;2.42;;;;;;;14.27;83.68;101054.69;4932072;28;20034;-77
2023/07/21 05:44:40;;;;;;;4.10;2.10;;;;;;;14.32;82.95;101051.97;4963211;28;20054;-79
2023/07/21 05:47:06;;;;;;;5.40;1.83;;;;;;;14.39;82.94;101057.81;4931445;28;20422;-78
2023/07/21 05:49:33;;;;;;;5.28;1.90;;;;;;;14.47;82.91;101062.59;4965906;28;20039;-79
2023/07/21 05:51:59;;;;;;;4.70;2.00;;;;;;;14.55;82.56;101052.25;4917153;28;20038;-76
2023/07/21 05:54:33;;;;;;;3.00;1.60;;;;;;;14.66;81.73;101051.03;4918249;28;20045;-78
2023/07/21 05:56:59;;;;;;;3.00;1.65;;;;;;;14.67;80.79;101052.66;4945356;28;20066;-78
2023/07/21 05:59:32;;;;;;;5.15;1.73;;;;;;;14.68;79.92;101054.25;4917043;28;20186;-77
2023/07/21 06:01:59;;;;;;;4.30;2.65;;;;;;;14.72;79.50;101055.28;4945941;28;20027;-77
2023/07/21 06:04:25;;;;;;;12.02;1.88;;;;;;;14.81;79.92;101048.13;4946568;28;20030;-77
2023/07/21 06:07:08;;;;;;;3.63;1.80;;;;;;;14.92;79.35;101056.91;4916582;28;20038;-76
2023/07/21 06:09:50;;;;;;;3.20;1.80;;;;;;;15.01;78.27;101047.88;4949071;28;20031;-78
2023/07/21 06:12:48;;;;;;;5.78;1.75;;;;;;;15.13;77.38;101046.63;4929384;28;20050;-77
2023/07/21 06:15:33;;;;;;;3.67;1.48;;;;;;;15.25;76.88;101042.41;4931639;28;20073;-80
2023/07/21 06:18:04;;;;;;;3.10;1.77;;;;;;;15.25;76.50;101047.78;4946535;28;20033;-76
2023/07/21 06:20:31;;;;;;;5.07;1.60;;;;;;;15.29;76.80;101053.38;4946298;28;20034;-77
2023/07/21 06:22:57;;;;;;;4.75;2.65;;;;;;;15.34;76.82;101050.63;4914084;28;20046;-77
2023/07/21 06:25:25;;;;;;;5.00;2.28;;;;;;;15.38;76.73;101046.25;4945450;28;20054;-76
2023/07/21 06:27:58;;;;;;;3.45;1.80;;;;;;;15.41;76.17;101042.94;4946096;28;20061;-76
2023/07/21 06:30:24;;;;;;;6.13;1.80;;;;;;;15.45;76.39;101052.06;4945757;28;20117;-77
2023/07/21 06:32:51;;;;;;;4.07;2.42;;;;;;;15.45;77.18;101048.56;4916437;28;20039;-78
2023/07/21 06:35:33;;;;;;;3.13;1.60;;;;;;;15.47;76.57;101052.56;4930384;28;20045;-76
2023/07/21 06:38:21;;;;;;;2.72;1.88;;;;;;;15.48;76.13;101051.47;4949844;28;20134;-79
2023/07/21 06:40:55;;;;;;;4.75;1.98;;;;;;;15.52;76.07;101047.09;4930000;28;20039;-76
2023/07/21 06:43:43;;;;;;;5.70;2.00;;;;;;;15.61;75.96;101049.13;4925879;28;20145;-78
2023/07/21 06:46:20;;;;;;;5.32;1.98;;;;;;;15.66;74.74;101041.78;4929546;28;20041;-76
2023/07/21 06:48:53;;;;;;;;;;;;;;;15.78;75.17;101049.38;4947881;28;20252;-78
2023/07/21 06:51:32;;;;;;;3.33;1.85;;;;;;;15.89;74.94;101042.72;4932695;28;19918;-76
2023/07/21 06:53:58;;;;;;;3.97;2.08;;;;;;;16.03;74.93;101046.22;4928385;28;20468;-79
2023/07/21 06:56:23;;;;;;;;;;;;;;;16.05;74.30;101044.06;4914140;28;20026;-79
2023/07/21 06:58:49;;;;;;;4.78;2.30;;;;;;;16.13;74.28;101034.44;4928952;28;19924;-78
2023/07/21 07:01:15;;;;;;;4.63;2.00;;;;;;;16.24;73.66;101035.03;4944847;28;20157;-77
2023/07/21 07:03:41;;;;;;;2.97;1.70;;;;;;;16.40;74.02;101036.34;4945542;28;20050;-77
2023/07/21 07:06:08;;;;;;;5.57;1.90;;;;;;;16.48;72.79;101026.72;4944942;28;20149;-76
2023/07/21 07:08:34;;;;;;;3.15;1.73;;;;;;;16.48;73.94;101040.25;4916270;28;20381;-77
2023/07/21 07:11:00;;;;;;;4.78;2.55;;;;;;;16.42;73.52;101026.03;4914787;28;20639;-76
2023/07/21 07:13:27;;;;;;;3.25;1.85;;;;;;;16.57;73.29;101033.00;4931310;28;20047;-77
2023/07/21 07:15:54;;;;;;;;;;;;;;;16.61;71.58;101034.81;4944571;28;20042;-77
2023/07/21 07:18:19;;;;;;;5.80;2.00;;;;;;;16.70;72.62;101026.00;4929869;28;20047;-76
2023/07/21 07:20:50;;;;;;;;;;;;;;;16.74;72.20;101035.13;4915859;28;20591;-76
2023/07/21 07:23:16;;;;;;;;;;;;;;;16.87;72.63;101032.41;4946535;28;19980;-76
2023/07/21 07:25:53;;;;;;;4.80;1.73;;;;;;;17.06;72.64;101032.22;4947178;28;20004;-79
2023/07/21 07:28:20;;;;;;;4.90;2.20;;;;;;;17.13;70.84;101029.88;4945596;28;20035;-78
2023/07/21 07:30:47;;;;;;;3.90;1.60;;;;;;;17.22;70.80;101035.41;4929299;28;21575;-77
2023/07/21 07:33:17;;;;;;;4.38;2.13;;;;;;;17.42;71.54;101031.41;4946812;28;20041;-77
2023/07/21 07:35:47;;;;;;;2.88;1.58;;;;;;;17.58;70.69;101029.91;4949658;28;20574;-78
2023/07/21 07:38:12;;;;;;;3.67;2.33;;;;;;;17.63;69.52;101028.97;4932791;28;20050;-77
2023/07/21 07:40:38;;;;;;;;;;;;;;;17.64;68.64;101030.56;4948569;28;20113;-79
2023/07/21 07:43:04;;;;;;;5.30;2.65;;;;;;;17.79;69.78;101026.69;4931984;28;20493;-77
2023/07/21 07:45:29;;;;;;;5.03;2.15;;;;;;;17.84;68.63;101026.56;4948822;28;20113;-79
2023/07/21 07:47:55;;;;;;;4.63;2.17;;;;;;;17.95;69.44;101022.47;4930730;28;20039;-79
2023/07/21 07:50:21;;;;;;;;;;;;;;;18.09;68.48;101025.91;4933194;28;20053;-78
2023/07/21 07:52:47;;;;;;;3.13;1.88;;;;;;;18.17;68.60;101024.31;4949316;28;19921;-77
2023/07/21 07:55:15;;;;;;;3.67;2.45;;;;;;;18.21;68.77;101023.38;4932575;28;20035;-76
2023/07/21 07:57:40;;;;;;;3.47;1.70;;;;;;;18.39;69.19;101020.72;4933131;28;20069;-79
2023/07/21 08:00:08;;;;;;;;;;;;;;;18.44;66.28;101023.28;4946072;28;20027;-77
2023/07/21 08:02:37;;;;;;;3.63;2.33;;;;;;;18.44;65.81;101012.44;4965509;28;20388;-76
2023/07/21 08:05:03;;;;;;;4.88;2.55;;;;;;;18.46;66.30;101012.91;4930464;28;20089;-77
2023/07/21 08:07:28;;;;;;;4.88;1.73;;;;;;;18.37;66.05;101014.81;4932587;28;20518;-77
2023/07/21 08:09:54;;;;;;;4.53;2.50;;;;;;;18.40;65.13;101016.88;4948028;28;20407;-77
2023/07/21 08:12:20;;;;;;;4.82;1.85;;;;;;;18.50;66.74;101009.28;4929603;28;20030;-77
2023/07/21 08:14:45;;;;;;;4.25;2.20;;;;;;;18.69;67.23;101008.19;4964132;28;20039;-75
2023/07/21 08:17:11;;;;;;;5.28;1.88;;;;;;;18.67;65.18;101005.81;4945468;28;20039;-79
2023/07/21 08:19:37;;;;;;;3.03;1.95;;;;;;;18.75;66.14;101007.72;4949262;28;20037;-78
2023/07/21 08:22:06;;;;;;;4.28;2.90;;;;;;;18.79;64.52;101002.47;4964339;28;20062;-79
2023/07/21 08:24:32;;;;;;;3.70;2.13;;;;;;;18.78;65.45;101000.88;4949186;28;20042;-77
2023/07/21 08:27:02;;;;;;;3.53;1.90;;;;;;;18.71;64.07;101001.34;4947899;28;20093;-77
2023/07/21 08:29:28;;;;;;;2.97;1.90;;;;;;;18.66;63.96;100990.66;4950030;28;20156;-80
2023/07/21 08:31:54;;;;;;;;;;;;;;;18.71;67.62;100987.78;4948202;28;20156;-79
2023/07/21 08:34:22;;;;;;;3.00;1.45;;;;;;;18.68;64.65;100998.47;4948779;28;19922;-78
2023/07/21 08:36:48;;;;;;;5.53;2.58;;;;;;;18.74;65.22;100995.28;4964045;28;20400;-79
2023/07/21 08:39:14;;;;;;;;;;;;;;;18.90;65.46;100992.91;4947877;28;20035;-78
2023/07/21 08:41:45;;;;;;;4.80;2.42;;;;;;;19.02;64.94;100990.31;4948813;28;19922;-77
2023/07/21 08:44:13;;;;;;;3.63;1.90;;;;;;;19.19;65.23;100984.09;4946478;28;21433;-78
2023/07/21 08:46:39;;;;;;;2.60;1.60;;;;;;;19.21;63.60;100991.91;4964166;28;20133;-79
2023/07/21 08:49:05;;;;;;;;;;;;;;;19.21;64.55;100981.06;4947048;28;20542;-80
2023/07/21 08:51:31;;;;;;;3.17;1.73;;;;;;;19.24;65.14;100988.56;4964406;28;19918;-78
2023/07/21 08:53:57;;;;;;;;;;;;;;;19.36;63.45;100984.06;4915646;28;20030;-75
2023/07/21 08:56:22;;;;;;;3.25;1.65;;;;;;;19.26;61.61;100984.41;4947290;28;20438;-77
2023/07/21 08:58:49;;;;;;;5.38;3.70;;;;;;;19.33;64.11;100979.28;4958255;23;20431;-77
2023/07/21 09:01:16;;;;;;;3.17;1.88;;;;;;;19.25;62.45;100977.38;4949086;28;20047;-76
2023/07/21 09:03:46;;;;;;;3.30;1.95;;;;;;;19.18;64.77;100979.78;4917074;28;20102;-74
2023/07/21 09:06:14;;;;;;;2.58;2.10;;;;;;;19.07;65.94;100976.59;4925660;28;20039;-75
2023/07/21 09:08:40;;;;;;;2.58;1.40;;;;;;;18.93;65.38;100972.47;4931689;28;20031;-74
2023/07/21 09:11:08;;;;;;;4.15;1.90;;;;;;;18.83;67.43;100984.41;4950157;28;20090;-75
2023/07/21 09:13:34;;;;;;;2.67;1.70;;;;;;;18.73;68.62;100980.13;4918205;28;20045;-76
2023/07/21 09:16:07;;;;;;;3.78;2.42;;;;;;;18.60;67.99;100970.19;4931168;28;20598;-76
2023/07/21 09:18:41;;;;;;;2.45;1.52;;;;;;;18.55;69.68;100970.34;4916308;28;20978;-76
2023/07/21 09:21:07;;;;;;;3.38;1.88;;;;;;;18.44;69.62;100969.06;4918946;28;20092;-74
2023/07/21 09:23:33;;;;;;;4.82;1.88;;;;;;;18.54;67.54;100964.09;4915280;28;20036;-74
2023/07/21 09:26:00;;;;;;;3.95;2.50;;;;;;;18.59;65.68;100959.66;4915551;28;20424;-77
2023/07/21 09:28:43;;;;;;;4.55;1.85;;;;;;;18.75;69.29;100964.31;4916385;28;20045;-75
2023/07/21 09:31:10;;;;;;;5.47;2.75;;;;;;;19.00;65.40;100961.91;4914967;28;20039;-75
2023/07/21 09:33:40;;;;;;;5.63;1.95;;;;;;;19.23;64.00;100963.31;4916510;28;20050;-76
2023/07/21 09:36:11;;;;;;;3.55;2.00;;;;;;;19.42;59.34;100954.03;4915058;28;20039;-73
2023/07/21 09:38:38;;;;;;;3.75;2.00;;;;;;;19.54;60.35;100962.28;4932278;28;20071;-72
2023/07/21 09:41:15;;;;;;;5.28;2.28;;;;;;;19.70;56.70;100954.44;4931121;28;20045;-74
2023/07/21 09:43:42;;;;;;;7.72;2.50;;;;;;;19.75;57.81;100960.50;4908242;28;20086;-76
2023/07/21 09:46:09;;;;;;;3.67;2.20;;;;;;;19.82;56.66;100955.34;4929718;28;20496;-74
2023/07/21 09:48:36;;;;;;;3.80;1.95;;;;;;;19.87;57.00;100955.16;4899441;28;20402;-75
2023/07/21 09:51:10;;;;;;;3.03;2.10;;;;;;;20.10;58.29;100942.09;4929355;28;20042;-76
2023/07/21 09:53:41;;;;;;;4.90;1.92;;;;;;;20.26;55.39;100936.91;4897699;28;20036;-77
2023/07/21 09:56:08;;;;;;;3.40;1.65;;;;;;;20.44;54.03;100948.44;4933522;28;20035;-78
2023/07/21 09:58:41;;;;;;;2.97;1.40;;;;;;;20.59;53.53;100949.78;4929305;28;20078;-77
2023/07/21 10:01:09;;;;;;;3.55;1.70;;;;;;;20.71;54.69;100952.56;4933182;28;20035;-76
2023/07/21 10:03:36;;;;;;;2.38;1.30;;;;;;;20.52;54.01;100941.38;4926893;28;20043;-77
2023/07/21 10:06:06;;;;;;;1.95;1.40;;;;;;;20.35;56.16;100942.25;4937449;28;20085;-78
2023/07/21 10:08:36;;;;;;;4.03;1.20;;;;;;;20.23;57.59;100944.91;4925086;28;20125;-77
2023/07/21 10:11:04;;;;;;;3.22;1.38;;;;;;;20.13;59.11;100946.09;4928064;28;20086;-77
2023/07/21 10:13:32;;;;;;;3.25;1.33;;;;;;;19.97;57.67;100936.88;4955341;28;20095;-78
2023/07/21 10:16:07;;;;;;;2.75;1.27;;;;;;;19.87;58.38;100947.00;4924073;28;20484;-76
2023/07/21 10:18:33;;;;;;;1.90;1.08;;;;;;;19.68;60.68;100924.88;4924862;28;20038;-76
2023/07/21 10:20:59;;;;;;;2.38;1.20;;;;;;;19.66;63.23;100939.94;4925465;28;20042;-78
2023/07/21 10:23:38;;;;;;;1.77;1.08;;;;;;;19.79;60.42;100931.56;4922368;28;20106;-75
2023/07/21 10:26:07;;;;;;;2.72;1.60;;;;;;;19.95;56.71;100922.84;4900414;28;20039;-75
2023/07/21 10:28:37;;;;;;;2.10;1.30;;;;;;;20.07;55.60;100922.94;4938408;28;20386;-74
2023/07/21 10:31:21;;;;;;;3.13;1.45;;;;;;;20.27;53.39;100930.31;4938726;28;20114;-74
2023/07/21 10:34:08;;;;;;;5.28;1.30;;;;;;;20.33;55.49;100922.78;4901639;28;20580;-76
2023/07/21 10:36:46;;;;;;;2.55;1.40;;;;;;;20.43;52.06;100923.16;4906074;28;20039;-78
2023/07/21 10:39:16;;;;;;;3.33;1.77;;;;;;;20.64;54.59;100916.94;4922825;28;20053;-76
2023/07/21 10:41:48;;;;;;;1.77;1.08;;;;;;;20.88;54.47;100913.53;4931321;28;20054;-76
2023/07/21 10:44:15;;;;;;;2.35;1.25;;;;;;;21.06;54.80;100914.94;4921368;28;20049;-74
2023/07/21 10:46:43;;;;;;;4.63;1.67;;;;;;;21.25;54.25;100914.44;4917052;28;20400;-76
2023/07/21 10:49:10;;;;;;;4.85;2.03;;;;;;;21.18;51.18;100911.47;4919743;28;20492;-76
2023/07/21 10:51:41;;;;;;;1.95;1.20;;;;;;;21.31;52.24;100915.84;4925231;28;20054;-76
2023/07/21 10:54:07;;;;;;;3.17;1.45;;;;;;;21.38;50.95;100913.34;4923924;28;20086;-77
2023/07/21 10:56:42;;;;;;;1.88;1.10;;;;;;;21.59;51.89;100909.75;4939939;28;20041;-75
2023/07/21 10:59:11;;;;;;;3.03;1.42;;;;;;;21.59;51.92;100915.19;4923822;28;20109;-75
2023/07/21 11:01:41;;;;;;;3.05;1.00;;;;;;;21.36;50.37;100920.28;4912782;28;20030;-77
2023/07/21 11:04:08;;;;;;;3.25;1.50;;;;;;;21.29;50.63;100915.38;4922267;28;20035;-77
2023/07/21 11:06:39;;;;;;;2.15;1.42;;;;;;;21.48;49.59;100909.41;4920528;28;20054;-74
2023/07/21 11:09:04;;;;;;;2.17;1.15;;;;;;;21.71;51.38;100912.47;4919213;28;20047;-73
2023/07/21 11:11:31;;;;;;;2.50;1.30;;;;;;;21.91;49.03;100914.28;4920142;28;20034;-77
2023/07/21 11:13:57;;;;;;;2.20;1.10;;;;;;;21.95;48.11;100915.22;4926279;28;20042;-77
2023/07/21 11:16:23;;;;;;;3.10;1.20;;;;;;;22.06;53.10;100918.25;4926147;28;20034;-76
2023/07/21 11:18:50;;;;;;;1.95;1.08;;;;;;;22.23;50.31;100904.41;4909025;28;20485;-78
2023/07/21 11:21:15;;;;;;;2.92;1.38;;;;;;;22.16;51.94;100903.41;4922811;28;20031;-78
2023/07/21 11:23:42;;;;;;;2.95;1.35;;;;;;;21.92;49.10;100910.44;4924769;28;20031;-77
2023/07/21 11:26:11;;;;;;;3.55;1.35;;;;;;;21.73;48.89;100904.75;4923144;28;20122;-77
2023/07/21 11:28:44;;;;;;;3.95;1.30;;;;;;;21.74;49.35;100909.88;4940702;28;20035;-78
2023/07/21 11:31:15;;;;;;;1.67;1.13;;;;;;;21.52;47.15;100908.38;4926749;28;20042;-78
2023/07/21 11:33:43;;;;;;;3.20;1.40;;;;;;;21.86;49.16;100911.00;4907181;28;20054;-75
2023/07/21 11:36:21;;;;;;;2.42;1.23;;;;;;;21.89;47.60;100902.94;4906064;28;20539;-78
2023/07/21 11:38:59;;;;;;;1.90;1.00;;;;;;;21.63;48.73;100900.56;4932308;28;20515;-79
2023/07/21 11:41:40;;;;;;;2.17;1.10;;;;;;;21.39;47.88;100892.34;4910710;28;20051;-77
2023/07/21 11:44:10;;;;;;;2.55;1.15;;;;;;;21.43;48.05;100896.00;4925351;28;20063;-77
2023/07/21 11:46:39;;;;;;;2.10;0.90;;;;;;;21.22;51.45;100898.78;4923424;29;20505;-79
2023/07/21 11:49:14;;;;;;;2.63;1.15;;;;;;;21.56;54.05;100902.25;4923192;28;20039;-80
2023/07/21 11:51:48;;;;;;;2.13;1.02;;;;;;;21.78;51.86;100899.09;4932339;28;20057;-78
2023/07/21 11:54:25;;;;;;;3.72;1.48;;;;;;;21.57;48.54;100899.19;4934029;28;20082;-76
2023/07/21 11:56:53;;;;;;;2.33;1.10;;;;;;;21.45;51.14;100894.53;4925061;28;20527;-76
2023/07/21 11:59:20;;;;;;;2.97;1.20;;;;;;;21.48;49.70;100887.63;4937686;28;20075;-78
2023/07/21 12:01:46;;;;;;;2.67;1.10;;;;;;;21.55;52.38;100889.78;4936242;28;20035;-78
2023/07/21 12:04:13;;;;;;;1.42;1.05;;;;;;;21.52;51.62;100878.41;4921438;28;20046;-75
2023/07/21 12:06:39;;;;;;;2.80;0.82;;;;;;;21.40;56.11;100885.78;4912677;28;20038;-77
2023/07/21 12:09:06;;;;;;;3.60;0.98;;;;;;;21.30;55.24;100883.50;4921675;28;20090;-78
2023/07/21 12:11:33;;;;;;;2.10;1.00;;;;;;;21.46;51.74;100887.94;4918392;28;20035;-76
2023/07/21 12:13:59;;;;;;;2.33;1.15;;;;;;;21.80;53.21;100889.41;4920559;28;20077;-76
2023/07/21 12:16:25;;;;;;;4.20;1.60;;;;;;;21.95;51.86;100884.44;4902040;28;20154;-77